createdAt,value
2019-03-04T00:02:28.261Z,9.43
2019-03-04T00:04:56.690Z,9.38
2019-03-04T00:07:25.042Z,9.30
2019-03-04T00:09:53.776Z,9.26
2019-03-04T00:12:22.173Z,9.24
2019-03-04T00:14:50.579Z,9.21
2019-03-04T00:17:18.972Z,9.17
2019-03-04T00:19:47.357Z,9.09
2019-03-04T00:22:15.772Z,9.08
2019-03-04T00:24:44.156Z,9.11
2019-03-04T00:27:12.539Z,9.08
2019-03-04T00:29:40.935Z,9.09
2019-03-04T00:32:09.680Z,9.11
2019-03-04T00:34:38.078Z,9.09
2019-03-04T00:37:06.460Z,9.06
2019-03-04T00:39:35.119Z,9.07
2019-03-04T00:42:03.533Z,9.07
2019-03-04T00:44:31.913Z,9.08
2019-03-04T00:47:00.300Z,9.10
2019-03-04T00:49:28.699Z,9.12
2019-03-04T00:51:57.101Z,9.14
2019-03-04T00:54:25.485Z,9.18
2019-03-04T00:56:54.179Z,9.20
2019-03-04T00:59:22.561Z,9.19
2019-03-04T01:01:50.941Z,9.18
2019-03-04T01:04:19.366Z,9.21
2019-03-04T01:06:47.761Z,9.19
2019-03-04T01:09:16.782Z,9.19
2019-03-04T01:11:45.191Z,9.20
2019-03-04T01:14:13.570Z,9.19
2019-03-04T01:16:41.959Z,9.18
2019-03-04T01:19:10.809Z,9.17
2019-03-04T01:21:39.205Z,9.13
2019-03-04T01:24:07.576Z,9.12
2019-03-04T01:26:35.979Z,9.14
2019-03-04T01:29:04.357Z,9.09
2019-03-04T01:31:32.808Z,9.05
2019-03-04T01:34:01.183Z,9.04
2019-03-04T01:36:29.576Z,9.01
2019-03-04T01:38:58.278Z,8.99
2019-03-04T01:41:27.026Z,8.99
2019-03-04T01:43:55.411Z,8.99
2019-03-04T01:46:23.812Z,8.98
2019-03-04T01:48:52.195Z,8.96
2019-03-04T01:51:20.588Z,8.96
2019-03-04T01:53:49.477Z,9.00
2019-03-04T01:56:17.877Z,8.98
2019-03-04T01:58:46.252Z,8.96
2019-03-04T02:01:14.660Z,9.00
2019-03-04T02:03:43.053Z,8.97
2019-03-04T02:06:11.444Z,8.97
2019-03-04T02:08:40.659Z,8.98
2019-03-04T02:11:09.050Z,8.99
2019-03-04T02:13:37.793Z,9.01
2019-03-04T02:16:06.261Z,9.00
2019-03-04T02:18:34.644Z,9.00
2019-03-04T02:21:03.044Z,8.99
2019-03-04T02:23:31.427Z,8.96
2019-03-04T02:26:05.739Z,8.94
2019-03-04T02:28:34.228Z,8.93
2019-03-04T02:31:02.687Z,8.97
2019-03-04T02:33:31.084Z,8.99
2019-03-04T02:35:59.568Z,8.97
2019-03-04T02:38:27.921Z,8.97
2019-03-04T02:40:56.599Z,8.96
2019-03-04T02:43:24.993Z,8.94
2019-03-04T02:45:53.383Z,8.96
2019-03-04T02:48:22.079Z,8.95
2019-03-04T02:50:50.455Z,8.91
2019-03-04T02:53:18.837Z,8.92
2019-03-04T02:55:47.220Z,8.90
2019-03-04T02:58:15.968Z,8.87
2019-03-04T03:00:44.354Z,8.86
2019-03-04T03:03:12.746Z,8.91
2019-03-04T03:05:41.135Z,8.93
2019-03-04T03:08:09.789Z,8.97
2019-03-04T03:10:38.175Z,9.00
2019-03-04T03:13:06.568Z,9.04
2019-03-04T03:15:34.952Z,9.08
2019-03-04T03:18:03.392Z,9.09
2019-03-04T03:20:31.766Z,9.08
2019-03-04T03:23:00.155Z,9.08
2019-03-04T03:25:28.543Z,9.10
2019-03-04T03:27:56.944Z,9.10
2019-03-04T03:30:25.358Z,9.10
2019-03-04T03:32:53.754Z,9.10
2019-03-04T03:35:22.141Z,9.10
2019-03-04T03:37:50.594Z,9.13
2019-03-04T03:40:21.910Z,9.12
2019-03-04T03:42:50.305Z,9.13
2019-03-04T03:45:18.902Z,9.14
2019-03-04T03:47:47.285Z,9.13
2019-03-04T03:50:16.927Z,9.14
2019-03-04T03:52:46.039Z,9.12
2019-03-04T03:55:16.065Z,9.10
2019-03-04T03:57:44.489Z,9.08
2019-03-04T04:00:24.176Z,9.08
2019-03-04T04:02:52.635Z,9.16
2019-03-04T04:05:21.048Z,9.14
2019-03-04T04:07:49.678Z,9.13
2019-03-04T04:10:19.459Z,9.13
2019-03-04T04:12:48.347Z,9.08
2019-03-04T04:15:18.756Z,9.09
2019-03-04T04:17:47.223Z,9.08
2019-03-04T04:20:15.638Z,9.05
2019-03-04T04:22:44.089Z,9.05
2019-03-04T04:25:13.392Z,9.04
2019-03-04T04:27:41.863Z,9.04
2019-03-04T04:30:17.012Z,9.01
2019-03-04T04:32:45.416Z,9.02
2019-03-04T04:35:13.998Z,8.99
2019-03-04T04:37:42.361Z,8.98
2019-03-04T04:40:12.648Z,9.00
2019-03-04T04:42:41.037Z,8.99
2019-03-04T04:45:10.247Z,9.06
2019-03-04T04:47:39.580Z,9.08
2019-03-04T04:50:16.625Z,9.11
2019-03-04T04:52:45.008Z,9.19
2019-03-04T04:55:13.402Z,9.16
2019-03-04T04:57:42.169Z,9.13
2019-03-04T05:00:16.180Z,9.14
2019-03-04T05:02:44.565Z,9.10
2019-03-04T05:05:13.487Z,9.07
2019-03-04T05:07:41.898Z,9.08
2019-03-04T05:10:16.087Z,9.14
2019-03-04T05:12:44.983Z,9.10
2019-03-04T05:15:15.223Z,9.09
2019-03-04T05:17:43.616Z,9.09
2019-03-04T05:20:15.091Z,9.12
2019-03-04T05:22:43.472Z,9.13
2019-03-04T05:25:11.995Z,9.12
2019-03-04T05:27:40.393Z,9.14
2019-03-04T05:30:11.984Z,9.17
2019-03-04T05:32:41.297Z,9.19
2019-03-04T05:35:09.748Z,9.18
2019-03-04T05:37:38.142Z,9.14
2019-03-04T05:40:12.711Z,9.14
2019-03-04T05:42:41.173Z,9.14
2019-03-04T05:45:15.191Z,9.11
2019-03-04T05:47:43.607Z,9.09
2019-03-04T05:50:25.540Z,9.11
2019-03-04T05:52:53.949Z,9.06
2019-03-04T05:55:22.403Z,8.99
2019-03-04T05:57:51.067Z,8.95
2019-03-04T06:00:24.997Z,8.98
2019-03-04T06:02:56.668Z,8.95
2019-03-04T06:05:25.057Z,9.03
2019-03-04T06:08:01.608Z,9.02
2019-03-04T06:10:30.065Z,9.09
2019-03-04T06:12:59.027Z,9.05
2019-03-04T06:15:27.530Z,9.06
2019-03-04T06:17:55.921Z,9.05
2019-03-04T06:20:24.360Z,9.10
2019-03-04T06:22:52.781Z,8.29
2019-03-04T06:25:26.172Z,7.29
2019-03-04T06:27:54.554Z,6.80
2019-03-04T06:30:25.031Z,6.55
2019-03-04T06:32:53.417Z,6.42
2019-03-04T06:35:21.787Z,5.96
2019-03-04T06:37:50.624Z,5.72
2019-03-04T06:40:20.544Z,5.54
2019-03-04T06:42:49.289Z,5.38
2019-03-04T06:45:20.157Z,5.31
2019-03-04T06:47:49.412Z,5.25
2019-03-04T06:50:46.564Z,5.26
2019-03-04T06:53:18.006Z,5.24
2019-03-04T06:56:01.426Z,5.27
2019-03-04T06:58:30.450Z,5.31
2019-03-04T07:01:01.675Z,5.39
2019-03-04T07:03:30.088Z,5.41
2019-03-04T07:05:58.481Z,5.49
2019-03-04T07:08:39.173Z,5.53
2019-03-04T07:11:07.633Z,5.52
2019-03-04T07:13:36.017Z,5.53
2019-03-04T07:16:05.595Z,5.57
2019-03-04T07:18:33.998Z,5.59
2019-03-04T07:21:02.392Z,5.62
2019-03-04T07:23:31.556Z,5.61
2019-03-04T07:25:59.937Z,5.68
2019-03-04T07:28:28.341Z,5.72
2019-03-04T07:30:57.024Z,5.80
2019-03-04T07:33:25.414Z,5.91
2019-03-04T07:35:54.146Z,5.96
2019-03-04T07:38:25.659Z,6.09
2019-03-04T07:40:54.056Z,6.16
2019-03-04T07:43:22.449Z,6.19
2019-03-04T07:45:50.827Z,6.19
2019-03-04T07:48:19.222Z,6.24
2019-03-04T07:50:47.607Z,6.23
2019-03-04T07:53:16.056Z,6.17
2019-03-04T07:55:44.440Z,6.29
2019-03-04T07:58:12.842Z,6.51
2019-03-04T08:00:41.764Z,6.64
2019-03-04T08:03:10.157Z,6.53
2019-03-04T08:05:38.534Z,6.42
2019-03-04T08:08:12.125Z,6.54
2019-03-04T08:10:49.514Z,6.55
2019-03-04T08:13:30.531Z,6.55
2019-03-04T08:15:59.437Z,6.51
2019-03-04T08:18:27.829Z,6.46
2019-03-04T08:20:56.739Z,6.42
2019-03-04T08:23:25.389Z,6.45
2019-03-04T08:25:53.783Z,6.47
2019-03-04T08:28:22.237Z,6.52
2019-03-04T08:30:50.685Z,6.75
2019-03-04T08:33:19.083Z,6.89
2019-03-04T08:35:47.503Z,6.87
2019-03-04T08:38:15.897Z,6.95
2019-03-04T08:40:44.359Z,6.95
2019-03-04T08:43:12.755Z,6.95
2019-03-04T08:45:41.405Z,6.93
2019-03-04T08:48:09.829Z,6.97
2019-03-04T08:50:38.229Z,6.97
2019-03-04T08:53:06.621Z,6.92
2019-03-04T08:55:35.016Z,6.92
2019-03-04T08:58:03.429Z,6.88
2019-03-04T09:00:32.808Z,6.88
2019-03-04T09:03:01.502Z,6.84
2019-03-04T09:05:29.896Z,6.83
2019-03-04T09:07:58.337Z,6.82
2019-03-04T09:10:29.100Z,6.86
2019-03-04T09:12:57.497Z,6.81
2019-03-04T09:15:26.247Z,6.90
2019-03-04T09:17:54.921Z,6.88
2019-03-04T09:20:23.944Z,6.90
2019-03-04T09:22:52.850Z,6.88
2019-03-04T09:25:39.727Z,6.91
2019-03-04T09:28:08.415Z,6.93
2019-03-04T09:30:37.288Z,6.97
2019-03-04T09:33:05.758Z,7.06
2019-03-04T09:35:34.162Z,7.09
2019-03-04T09:38:02.559Z,7.08
2019-03-04T09:40:33.640Z,7.09
2019-03-04T09:43:03.841Z,7.14
2019-03-04T09:45:38.959Z,7.24
2019-03-04T09:48:02.851Z,7.35
2019-03-04T09:50:31.911Z,7.36
2019-03-04T09:53:00.374Z,7.46
2019-03-04T09:55:29.612Z,7.47
2019-03-04T09:57:58.001Z,7.53
2019-03-04T10:00:46.301Z,7.62
2019-03-04T10:03:35.583Z,7.66
2019-03-04T10:06:12.493Z,7.82
2019-03-04T10:08:46.569Z,7.84
2019-03-04T10:11:32.978Z,7.83
2019-03-04T10:14:04.436Z,7.74
2019-03-04T10:16:44.449Z,7.60
2019-03-04T10:19:36.967Z,7.70
2019-03-04T10:22:22.947Z,7.70
2019-03-04T10:25:13.937Z,7.69
2019-03-04T10:27:48.173Z,7.56
2019-03-04T10:30:37.681Z,7.48
2019-03-04T10:33:11.949Z,7.41
2019-03-04T10:35:52.048Z,7.35
2019-03-04T10:38:42.985Z,7.41
2019-03-04T10:41:23.734Z,7.38
2019-03-04T10:44:04.258Z,7.26
2019-03-04T10:46:53.706Z,7.24
2019-03-04T10:49:22.343Z,7.08
2019-03-04T10:51:50.928Z,7.10
2019-03-04T10:54:19.329Z,7.32
2019-03-04T10:56:47.722Z,7.65
2019-03-04T10:59:16.150Z,7.89
2019-03-04T11:01:44.609Z,7.97
2019-03-04T11:04:13.589Z,8.13
2019-03-04T11:06:41.974Z,8.11
2019-03-04T11:09:10.535Z,8.02
2019-03-04T11:11:39.501Z,7.93
2019-03-04T11:14:08.066Z,7.84
2019-03-04T11:16:36.561Z,7.80
2019-03-04T11:19:05.191Z,7.82
2019-03-04T11:21:33.577Z,7.68
2019-03-04T11:24:02.042Z,7.55
2019-03-04T11:26:30.430Z,7.72
2019-03-04T11:28:58.902Z,7.76
2019-03-04T11:31:27.476Z,7.71
2019-03-04T11:33:55.866Z,7.63
2019-03-04T11:36:24.270Z,7.58
2019-03-04T11:38:55.710Z,7.54
2019-03-04T11:41:24.533Z,7.54
2019-03-04T11:43:52.930Z,7.41
2019-03-04T11:46:23.182Z,7.39
2019-03-04T11:48:51.783Z,7.41
2019-03-04T11:51:20.168Z,7.34
2019-03-04T11:53:48.587Z,7.29
2019-03-04T11:56:16.974Z,7.32
2019-03-04T11:58:45.364Z,7.23
2019-03-04T12:01:15.471Z,7.23
2019-03-04T12:03:43.859Z,7.29
2019-03-04T12:06:12.301Z,7.43
2019-03-04T12:08:40.685Z,7.41
2019-03-04T12:11:09.077Z,7.34
2019-03-04T12:13:37.473Z,7.31
2019-03-04T12:16:05.916Z,7.26
2019-03-04T12:18:36.105Z,7.24
2019-03-04T12:21:04.711Z,7.17
2019-03-04T12:23:33.099Z,7.05
2019-03-04T12:26:01.497Z,7.02
2019-03-04T12:28:29.888Z,7.01
2019-03-04T12:30:58.317Z,7.00
2019-03-04T12:33:26.708Z,6.98
2019-03-04T12:35:55.096Z,6.89
2019-03-04T12:38:23.491Z,6.86
2019-03-04T12:40:51.889Z,6.80
2019-03-04T12:43:20.900Z,6.76
2019-03-04T12:45:49.293Z,6.73
2019-03-04T12:48:17.668Z,6.68
2019-03-04T12:50:46.065Z,6.80
2019-03-04T12:53:15.225Z,6.79
2019-03-04T12:55:43.643Z,6.54
2019-03-04T12:58:12.030Z,6.05
2019-03-04T13:00:40.733Z,5.71
2019-03-04T13:03:17.668Z,5.40
2019-03-04T13:05:46.823Z,5.07
2019-03-04T13:08:15.640Z,4.85
2019-03-04T13:10:44.030Z,4.73
2019-03-04T13:13:12.760Z,4.65
2019-03-04T13:15:41.228Z,4.63
2019-03-04T13:18:12.635Z,4.53
2019-03-04T13:20:42.079Z,4.47
2019-03-04T13:23:11.477Z,4.58
2019-03-04T13:25:39.868Z,4.60
2019-03-04T13:28:08.803Z,4.50
2019-03-04T13:30:41.556Z,4.50
2019-03-04T13:33:10.617Z,4.40
2019-03-04T13:35:40.837Z,4.45
2019-03-04T13:38:09.230Z,4.53
2019-03-04T13:40:37.638Z,4.66
2019-03-04T13:43:06.565Z,4.72
2019-03-04T13:45:35.537Z,4.76
2019-03-04T13:48:04.394Z,4.76
2019-03-04T13:50:35.158Z,4.96
2019-03-04T13:53:03.634Z,5.17
2019-03-04T13:55:32.091Z,5.36
2019-03-04T13:58:00.551Z,5.69
2019-03-04T14:00:42.843Z,5.59
2019-03-04T14:03:13.869Z,5.64
2019-03-04T14:05:42.377Z,5.67
2019-03-04T14:08:10.855Z,5.68
2019-03-04T14:10:47.488Z,5.73
2019-03-04T14:13:15.890Z,5.72
2019-03-04T14:15:46.125Z,5.63
2019-03-04T14:18:14.595Z,5.67
2019-03-04T14:20:42.986Z,5.69
2019-03-04T14:23:11.378Z,5.62
2019-03-04T14:25:39.769Z,5.65
2019-03-04T14:28:08.325Z,5.54
2019-03-04T14:30:36.717Z,5.47
2019-03-04T14:33:05.192Z,5.44
2019-03-04T14:35:33.572Z,5.43
2019-03-04T14:38:01.952Z,5.43
2019-03-04T14:40:30.351Z,5.51
2019-03-04T14:42:58.724Z,5.52
2019-03-04T14:45:28.008Z,5.64
2019-03-04T14:47:56.389Z,5.84
2019-03-04T14:50:25.111Z,5.84
2019-03-04T14:52:53.511Z,5.89
2019-03-04T14:55:24.494Z,5.89
2019-03-04T14:57:52.907Z,5.88
2019-03-04T15:00:32.868Z,5.86
2019-03-04T15:03:01.291Z,5.87
2019-03-04T15:05:29.695Z,5.88
2019-03-04T15:07:58.079Z,6.12
2019-03-04T15:10:26.633Z,6.06
2019-03-04T15:12:55.025Z,6.10
2019-03-04T15:15:31.495Z,6.04
2019-03-04T15:17:59.890Z,6.07
2019-03-04T15:20:29.808Z,6.05
2019-03-04T15:22:58.256Z,6.03
2019-03-04T15:25:35.196Z,6.06
2019-03-04T15:28:21.249Z,6.07
2019-03-04T15:31:05.139Z,6.11
2019-03-04T15:33:33.533Z,6.10
2019-03-04T15:36:01.926Z,6.14
2019-03-04T15:38:30.322Z,6.15
2019-03-04T15:40:58.707Z,6.23
2019-03-04T15:43:27.134Z,6.37
2019-03-04T15:45:57.393Z,6.45
2019-03-04T15:48:28.724Z,6.56
2019-03-04T15:50:57.197Z,6.52
2019-03-04T15:53:25.632Z,6.57
2019-03-04T15:55:54.182Z,6.56
2019-03-04T15:58:22.571Z,6.59
2019-03-04T16:00:51.232Z,6.55
2019-03-04T16:03:20.327Z,6.57
2019-03-04T16:05:48.721Z,6.53
2019-03-04T16:08:17.394Z,6.62
2019-03-04T16:10:45.927Z,6.56
2019-03-04T16:13:14.446Z,6.59
2019-03-04T16:15:45.380Z,6.45
2019-03-04T16:18:13.901Z,6.45
2019-03-04T16:20:42.668Z,6.45
2019-03-04T16:23:11.061Z,6.61
2019-03-04T16:25:39.444Z,6.81
2019-03-04T16:28:19.562Z,6.94
2019-03-04T16:30:50.159Z,7.05
2019-03-04T16:33:18.715Z,7.16
2019-03-04T16:35:47.247Z,7.24
2019-03-04T16:38:15.700Z,7.29
2019-03-04T16:40:44.438Z,7.33
2019-03-04T16:43:12.821Z,7.32
2019-03-04T16:45:41.316Z,7.30
2019-03-04T16:48:09.706Z,7.27
2019-03-04T16:50:40.611Z,7.31
2019-03-04T16:53:20.670Z,7.32
2019-03-04T16:55:49.065Z,7.26
2019-03-04T16:58:17.517Z,7.20
2019-03-04T17:00:47.077Z,7.16
2019-03-04T17:03:15.535Z,7.17
2019-03-04T17:05:44.162Z,7.15
2019-03-04T17:08:12.786Z,7.11
2019-03-04T17:10:41.292Z,7.14
2019-03-04T17:13:09.680Z,7.02
2019-03-04T17:15:38.075Z,7.02
2019-03-04T17:18:06.634Z,6.95
2019-03-04T17:20:35.028Z,6.88
2019-03-04T17:23:03.659Z,6.87
2019-03-04T17:25:32.061Z,6.85
2019-03-04T17:28:00.860Z,6.83
2019-03-04T17:30:29.795Z,6.79
2019-03-04T17:32:58.234Z,6.75
2019-03-04T17:35:26.629Z,6.74
2019-03-04T17:37:55.016Z,6.71
2019-03-04T17:40:28.678Z,6.67
2019-03-04T17:42:57.064Z,6.66
2019-03-04T17:45:26.802Z,6.64
2019-03-04T17:47:55.183Z,6.56
2019-03-04T17:50:37.862Z,6.57
2019-03-04T17:53:08.796Z,6.55
2019-03-04T17:55:37.243Z,6.48
2019-03-04T17:58:05.977Z,6.45
2019-03-04T18:00:35.319Z,6.38
2019-03-04T18:03:03.770Z,6.34
2019-03-04T18:05:32.196Z,6.28
2019-03-04T18:08:00.588Z,6.26
2019-03-04T18:10:28.977Z,6.41
2019-03-04T18:12:59.939Z,6.52
2019-03-04T18:15:30.871Z,6.56
2019-03-04T18:17:59.270Z,6.53
2019-03-04T18:20:34.390Z,6.50
2019-03-04T18:22:57.776Z,6.46
2019-03-04T18:25:38.920Z,6.34
2019-03-04T18:28:12.815Z,6.21
2019-03-04T18:30:55.897Z,6.06
2019-03-04T18:33:33.063Z,5.93
2019-03-04T18:36:04.523Z,5.78
2019-03-04T18:38:53.892Z,5.63
2019-03-04T18:41:47.997Z,5.53
2019-03-04T18:44:40.281Z,5.46
2019-03-04T18:47:18.115Z,5.49
2019-03-04T18:49:46.501Z,5.50
2019-03-04T18:52:14.880Z,5.51
2019-03-04T18:54:43.300Z,5.51
2019-03-04T18:57:12.068Z,5.49
2019-03-04T18:59:41.302Z,5.45
2019-03-04T19:02:09.771Z,5.43
2019-03-04T19:04:38.235Z,5.46
2019-03-04T19:07:06.625Z,5.41
2019-03-04T19:09:35.092Z,5.41
2019-03-04T19:12:03.468Z,5.41
2019-03-04T19:14:31.929Z,5.48
2019-03-04T19:17:00.324Z,5.53
2019-03-04T19:19:28.713Z,5.59
2019-03-04T19:21:57.090Z,5.64
2019-03-04T19:24:25.495Z,5.72
2019-03-04T19:26:53.887Z,5.76
2019-03-04T19:29:22.274Z,5.81
2019-03-04T19:31:51.096Z,5.86
2019-03-04T19:34:19.552Z,5.86
2019-03-04T19:36:47.944Z,5.94
2019-03-04T19:39:16.337Z,5.99
2019-03-04T19:41:44.720Z,6.02
2019-03-04T19:44:13.141Z,6.03
2019-03-04T19:46:41.529Z,6.00
2019-03-04T19:49:09.986Z,5.86
2019-03-04T19:51:38.453Z,5.75
2019-03-04T19:54:07.183Z,5.57
2019-03-04T19:56:35.603Z,5.46
2019-03-04T19:59:04.063Z,5.43
2019-03-04T20:01:32.519Z,5.37
2019-03-04T20:04:00.976Z,5.29
2019-03-04T20:06:29.533Z,5.26
2019-03-04T20:08:58.009Z,5.23
2019-03-04T20:11:26.400Z,5.21
2019-03-04T20:13:54.776Z,5.21
2019-03-04T20:16:23.706Z,5.21
2019-03-04T20:18:52.134Z,5.22
2019-03-04T20:21:20.578Z,5.21
2019-03-04T20:23:48.963Z,5.25
2019-03-04T20:26:17.349Z,5.24
2019-03-04T20:28:45.746Z,5.25
2019-03-04T20:31:14.127Z,5.27
2019-03-04T20:33:44.920Z,5.27
2019-03-04T20:36:13.085Z,5.25
2019-03-04T20:38:44.283Z,5.25
2019-03-04T20:41:12.752Z,5.30
2019-03-04T20:43:41.125Z,5.33
2019-03-04T20:46:09.542Z,5.34
2019-03-04T20:48:39.551Z,5.35
2019-03-04T20:51:07.972Z,5.39
2019-03-04T20:53:36.355Z,5.40
2019-03-04T20:56:04.911Z,5.38
2019-03-04T20:58:33.428Z,5.40
2019-03-04T21:01:01.984Z,5.44
2019-03-04T21:03:35.001Z,5.43
2019-03-04T21:06:00.995Z,5.46
2019-03-04T21:08:29.384Z,5.47
2019-03-04T21:10:58.348Z,5.49
2019-03-04T21:13:35.163Z,5.52
2019-03-04T21:15:56.923Z,5.55
2019-03-04T21:18:25.483Z,5.53
2019-03-04T21:20:53.940Z,5.52
2019-03-04T21:23:22.868Z,5.55
2019-03-04T21:25:54.264Z,5.52
2019-03-04T21:28:41.264Z,5.54
2019-03-04T21:31:29.216Z,5.56
2019-03-04T21:34:11.084Z,5.60
2019-03-04T21:37:04.052Z,5.65
2019-03-04T21:39:36.799Z,5.66
2019-03-04T21:42:17.356Z,5.68
2019-03-04T21:44:51.583Z,5.63
2019-03-04T21:47:51.645Z,5.63
2019-03-04T21:53:08.888Z,5.72
2019-03-04T21:55:43.293Z,5.65
2019-03-04T21:58:11.727Z,5.65
2019-03-04T22:00:40.452Z,5.62
2019-03-04T22:03:14.606Z,5.58
2019-03-04T22:05:50.286Z,5.56
2019-03-04T22:08:14.222Z,5.55
2019-03-04T22:10:42.712Z,5.50
2019-03-04T22:13:11.113Z,5.49
2019-03-04T22:15:39.564Z,5.45
2019-03-04T22:18:08.291Z,5.44
2019-03-04T22:20:36.748Z,5.43
2019-03-04T22:23:05.435Z,5.39
2019-03-04T22:25:33.855Z,5.40
2019-03-04T22:28:02.297Z,5.37
2019-03-04T22:30:31.097Z,5.31
2019-03-04T22:32:59.482Z,5.29
2019-03-04T22:35:28.507Z,5.31
2019-03-04T22:37:56.888Z,5.29
2019-03-04T22:40:27.420Z,5.30
2019-03-04T22:42:55.812Z,5.29
2019-03-04T22:45:24.304Z,5.27
2019-03-04T22:47:53.357Z,5.26
2019-03-04T22:50:22.689Z,5.23
2019-03-04T22:52:51.157Z,5.24
2019-03-04T22:55:25.411Z,5.22
2019-03-04T22:57:53.799Z,5.20
2019-03-04T23:00:54.136Z,5.13
2019-03-04T23:03:24.861Z,5.19
2019-03-04T23:05:59.218Z,5.14
2019-03-04T23:08:27.616Z,5.15
2019-03-04T23:10:56.004Z,5.14
2019-03-04T23:13:27.441Z,5.18
2019-03-04T23:15:57.229Z,5.17
2019-03-04T23:18:25.584Z,5.11
2019-03-04T23:20:53.988Z,5.11
2019-03-04T23:23:22.365Z,5.17
2019-03-04T23:25:50.823Z,5.14
2019-03-04T23:28:19.484Z,5.18
2019-03-04T23:30:47.896Z,5.21
2019-03-04T23:33:16.285Z,5.20
2019-03-04T23:35:45.130Z,5.15
2019-03-04T23:38:13.531Z,5.20
2019-03-04T23:40:41.912Z,5.19
2019-03-04T23:43:10.372Z,5.15
2019-03-04T23:45:39.285Z,5.20
2019-03-04T23:48:07.672Z,5.19
2019-03-04T23:50:36.132Z,5.19
2019-03-04T23:53:04.515Z,5.21
2019-03-04T23:55:32.932Z,5.19
2019-03-04T23:58:01.329Z,5.17
